Airfield :
LOGIN :

Register | Disclaimer

   EN    FR    IT 

 










Legend :    VFR   Marginal VFR   IFR   Intensive IFR   Very Intensive IFR
Visi :
Ceiling :
>= 8 km
>= 3000ft
5 to 8 km
1000 to 3000 ft
1500m to 5 km
500 to 1000 ft
800 to 1500m
200 to 500 ft
< 800m
< 200 ft
Symbols :   Thunderstorms  Fog  Heavy snow  Heavy precipitations  Wind > 20 kt
SIGMETs :     Misc.  Thunderstorms  Icing  Turbulence  Mountain Waves  Volcanic Ashes






- Airport Elevation : 5600 ft
- IATA code : SMV


LSZS - Samedan

CURRENT METAR :
  • 162150Z AUTO 17006KT CAVOK 08/07 Q1019

EXPIRED METARs :
  • 162120Z AUTO 17005KT 150V210 CAVOK 09/07 Q1019
  • 162050Z AUTO 17005KT 140V200 CAVOK 09/07 Q1019
  • 162020Z AUTO 15005KT 110V200 9999 NCD 10/07 Q1018
  • 161950Z AUTO 19006KT CAVOK 10/07 Q1018
  • 161920Z AUTO 19008KT 150V230 CAVOK 11/07 Q1018
  • 161850Z AUTO 21011KT 180V240 9999 NCD 11/07 Q1017
  • 161820Z AUTO 20009KT 160V240 9999 SCT070 12/07 Q1017
  • 161750Z AUTO 21009KT 9999 FEW075 12/08 Q1016
  • 161720Z AUTO 22013KT 9999 FEW070 13/07 Q1016

TAF TAF LSZS
Valid from the 16 at 15:00 until the 17 at 00:00 UTC


161425Z 1615/1624 22012KT 9999 SCT050 TX16/1615Z
PROB40
TEMPO 1615/1618 SCT050TCU
BECMG 1616/1619 VRB02KT
BECMG 1618/1621 CAVOK
ATIS : +41 81 834 93 24



MET'MAP, your aeronautical weather chart ! - Copyright ORBIFLY December 2007 - Disclaimer

ORBIFLY MET'MAP TEAM :

Programming & Development : Alexandra Zaïnal
Original concept : Baudouin d'Aumeries
Technical & hardware support : Manuel Goepfert
Assistance : Marc-Olivier Méhu




SOURCES & CREDITS :

   NOAA